Time;durP1;ratioP1;P1;durP2;ratioP2;P2;SDS_P1;SDS_P2;PMS_P1;PMS_P2;Temp;Humidity;BMP_temperature;BMP_pressure;BME280_temperature;BME280_humidity;BME280_pressure;Samples;Min_cycle;Max_cycle;Signal;HPM_P1;HPM_P2
2021/06/10 00:01:46;;;;;;;8.73;7.00;;;;;;;19.30;60.39;94971.56;5058060;28;20808;-68
2021/06/10 00:04:14;;;;;;;9.03;6.53;;;;;;;19.21;60.33;94962.78;5067684;28;20490;-67
2021/06/10 00:06:40;;;;;;;13.27;7.30;;;;;;;19.21;60.10;94974.19;5052902;28;20466;-68
2021/06/10 00:09:07;;;;;;;8.73;6.47;;;;;;;19.20;60.25;94956.69;5058451;28;20438;-67
2021/06/10 00:11:34;;;;;;;12.63;7.40;;;;;;;18.77;61.89;94958.38;5070084;28;20446;-66
2021/06/10 00:14:01;;;;;;;10.63;7.30;;;;;;;18.68;62.43;94954.88;5062950;28;20435;-67
2021/06/10 00:16:28;;;;;;;10.33;8.03;;;;;;;18.70;62.25;94963.31;5063688;28;20446;-67
2021/06/10 00:18:57;;;;;;;9.43;7.43;;;;;;;18.69;62.44;94950.34;5068798;28;20449;-67
2021/06/10 00:21:24;;;;;;;9.07;8.10;;;;;;;18.75;61.75;94941.97;5069771;28;20994;-67
2021/06/10 00:23:51;;;;;;;9.70;8.00;;;;;;;18.63;61.99;94946.28;5065453;28;20439;-66
2021/06/10 00:26:18;;;;;;;16.07;8.23;;;;;;;18.62;62.17;94940.16;5050084;28;20466;-66
2021/06/10 00:28:47;;;;;;;9.70;7.33;;;;;;;18.83;61.67;94935.13;5047878;28;21021;-68
2021/06/10 00:31:14;;;;;;;9.80;7.80;;;;;;;18.70;61.59;94936.75;5060002;28;20465;-66
2021/06/10 00:33:41;;;;;;;8.93;7.83;;;;;;;18.92;60.67;94936.72;5071686;28;20452;-67
2021/06/10 00:36:08;;;;;;;11.47;7.67;;;;;;;19.20;60.18;94924.00;5054064;28;20840;-68
2021/06/10 00:38:35;;;;;;;11.20;8.00;;;;;;;18.96;60.35;94932.38;5070409;28;20549;-66
2021/06/10 00:41:02;;;;;;;8.80;7.90;;;;;;;18.57;62.34;94927.03;5064975;28;20830;-66
2021/06/10 00:43:28;;;;;;;11.57;8.80;;;;;;;18.43;62.68;94926.31;5066910;28;20442;-67
2021/06/10 00:45:55;;;;;;;13.20;8.67;;;;;;;18.24;62.75;94925.69;5053383;28;20478;-69
2021/06/10 00:48:22;;;;;;;9.53;8.40;;;;;;;18.31;63.04;94918.09;5067305;28;20478;-69
2021/06/10 00:50:51;;;;;;;14.33;8.70;;;;;;;18.38;62.68;94918.44;5067371;28;20972;-68
2021/06/10 00:53:22;;;;;;;17.73;8.80;;;;;;;18.82;60.93;94913.09;5055812;28;20473;-69
2021/06/10 00:55:51;;;;;;;9.40;8.40;;;;;;;18.95;60.69;94906.91;5072294;28;20442;-67
2021/06/10 00:58:20;;;;;;;12.13;9.20;;;;;;;19.10;60.65;94909.13;5073604;28;20460;-67
2021/06/10 01:00:47;;;;;;;17.20;8.80;;;;;;;18.94;60.98;94910.63;5073045;28;20461;-70
2021/06/10 01:03:14;;;;;;;10.40;8.77;;;;;;;18.96;60.62;94918.28;5072395;28;20473;-69
2021/06/10 01:05:43;;;;;;;9.40;8.03;;;;;;;19.08;60.10;94910.53;5057375;28;20474;-69
2021/06/10 01:08:23;;;;;;;13.40;8.73;;;;;;;19.01;60.21;94916.28;5053596;28;20508;-66
2021/06/10 01:11:13;;;;;;;9.90;8.90;;;;;;;19.17;60.16;94909.50;5062817;28;20438;-67
2021/06/10 01:13:49;;;;;;;10.07;9.00;;;;;;;19.08;59.29;94906.03;5072889;28;20430;-67
2021/06/10 01:16:20;;;;;;;12.17;9.03;;;;;;;19.13;59.07;94908.53;5072594;28;20444;-67
2021/06/10 01:18:48;;;;;;;10.30;8.20;;;;;;;19.19;59.25;94925.91;5071938;28;20425;-68
2021/06/10 01:21:18;;;;;;;10.10;8.13;;;;;;;19.34;58.78;94915.97;5061550;28;20450;-68
2021/06/10 01:24:11;;;;;;;9.43;8.13;;;;;;;19.27;59.12;94923.59;5066624;28;20451;-68
2021/06/10 01:26:51;;;;;;;11.40;9.00;;;;;;;19.10;59.41;94930.38;5066734;28;20946;-67
2021/06/10 01:29:19;;;;;;;9.47;8.43;;;;;;;18.94;59.92;94931.13;5072574;28;20445;-67
2021/06/10 01:31:46;;;;;;;10.53;8.60;;;;;;;18.95;59.86;94933.47;5058731;28;20479;-67
2021/06/10 01:34:15;;;;;;;11.70;8.73;;;;;;;18.96;60.15;94935.03;5053091;28;20529;-67
2021/06/10 01:36:45;;;;;;;12.23;8.67;;;;;;;19.06;59.59;94937.41;5054512;28;20439;-67
2021/06/10 01:39:21;;;;;;;10.83;8.57;;;;;;;18.95;59.92;94948.59;5072767;28;20438;-68
2021/06/10 01:41:53;;;;;;;9.47;8.57;;;;;;;18.85;60.47;94957.63;5071072;28;20982;-66
2021/06/10 01:44:23;;;;;;;10.53;8.53;;;;;;;18.78;59.92;94940.56;5052022;28;20956;-68
2021/06/10 01:46:51;;;;;;;13.23;8.73;;;;;;;18.75;60.34;94941.97;5066195;28;20481;-67
2021/06/10 01:49:20;;;;;;;11.77;8.83;;;;;;;18.80;60.12;94947.13;5060056;28;20959;-67
2021/06/10 01:51:48;;;;;;;9.87;8.33;;;;;;;18.69;60.03;94943.16;5072306;28;20454;-67
2021/06/10 01:54:16;;;;;;;10.73;8.23;;;;;;;18.74;60.49;94931.66;5052272;28;20438;-67
2021/06/10 01:56:45;;;;;;;9.23;7.60;;;;;;;18.81;60.25;94942.63;5065661;28;20438;-66
2021/06/10 01:59:14;;;;;;;11.67;7.77;;;;;;;18.67;60.41;94936.59;5065504;28;20828;-67
2021/06/10 02:01:42;;;;;;;12.93;8.30;;;;;;;18.45;61.33;94937.41;5052247;28;20618;-68
2021/06/10 02:04:11;;;;;;;10.30;8.13;;;;;;;18.61;60.50;94935.19;5069268;28;21009;-68
2021/06/10 02:06:41;;;;;;;8.07;7.27;;;;;;;18.12;62.38;94944.00;5058200;28;20482;-69
2021/06/10 02:09:10;;;;;;;9.93;7.53;;;;;;;18.28;61.57;94945.25;5071986;28;20452;-68
2021/06/10 02:11:39;;;;;;;9.67;6.70;;;;;;;18.33;61.34;94947.75;5057593;28;20446;-67
2021/06/10 02:14:08;;;;;;;8.57;6.83;;;;;;;18.40;61.47;94934.84;5063890;28;20443;-66
2021/06/10 02:16:39;;;;;;;9.80;7.10;;;;;;;18.40;61.21;94937.50;5052497;28;20492;-66
2021/06/10 02:19:09;;;;;;;11.13;7.23;;;;;;;18.48;61.24;94941.34;5053017;28;20454;-67
2021/06/10 02:21:37;;;;;;;10.77;7.30;;;;;;;18.41;60.94;94944.41;5066430;28;20867;-67
2021/06/10 02:24:04;;;;;;;10.37;7.40;;;;;;;18.36;61.33;94946.34;5058103;28;20453;-67
2021/06/10 02:26:31;;;;;;;7.67;6.93;;;;;;;18.42;60.80;94945.97;5058816;28;20485;-67
2021/06/10 02:28:58;;;;;;;9.23;7.40;;;;;;;18.42;60.67;94953.94;5069613;28;20445;-67
2021/06/10 02:31:25;;;;;;;10.57;7.73;;;;;;;18.41;60.19;94944.41;5061283;28;20475;-67
2021/06/10 02:33:52;;;;;;;11.90;8.53;;;;;;;18.30;61.21;94951.03;5051053;28;20504;-67
2021/06/10 02:36:19;;;;;;;10.13;7.57;;;;;;;18.28;61.02;94947.91;5051159;28;20827;-67
2021/06/10 02:38:52;;;;;;;11.87;8.47;;;;;;;18.23;60.91;94941.94;5069789;28;20438;-67
2021/06/10 02:41:23;;;;;;;10.00;7.77;;;;;;;18.26;60.69;94946.63;5071991;28;20500;-68
2021/06/10 02:43:51;;;;;;;9.33;7.80;;;;;;;18.31;61.00;94955.25;5069695;28;20449;-68
2021/06/10 02:46:38;;;;;;;8.73;7.53;;;;;;;18.40;60.55;94953.44;5071344;28;20643;-67
2021/06/10 02:49:07;;;;;;;8.87;7.97;;;;;;;18.31;60.36;94955.25;5071341;28;20828;-67
2021/06/10 02:51:36;;;;;;;9.90;7.80;;;;;;;18.28;60.24;94966.47;5071846;28;20453;-67
2021/06/10 02:54:07;;;;;;;13.47;8.80;;;;;;;18.45;60.14;94966.59;5070227;28;20446;-68
2021/06/10 02:56:35;;;;;;;8.77;7.87;;;;;;;18.22;61.57;94970.31;5070861;28;20438;-67
2021/06/10 02:59:04;;;;;;;13.67;9.50;;;;;;;18.12;61.57;94960.72;5053515;28;20481;-69
2021/06/10 03:01:37;;;;;;;10.23;9.03;;;;;;;17.89;62.26;94958.34;5051507;28;20534;-66
2021/06/10 03:04:06;;;;;;;11.57;8.57;;;;;;;17.97;62.34;94962.94;5067408;28;20537;-66
2021/06/10 03:06:35;;;;;;;14.83;9.43;;;;;;;17.84;62.34;94959.25;5054938;28;20475;-66
2021/06/10 03:09:02;;;;;;;20.27;9.10;;;;;;;18.05;62.15;94962.22;5051322;28;20445;-66
2021/06/10 03:11:30;;;;;;;10.80;8.70;;;;;;;18.06;61.53;94963.78;5065245;28;20434;-67
2021/06/10 03:13:58;;;;;;;11.83;8.47;;;;;;;18.18;60.88;94966.69;5050449;28;20442;-67
2021/06/10 03:16:26;;;;;;;14.70;8.70;;;;;;;18.22;60.64;94962.34;5064551;28;20461;-67
2021/06/10 03:18:56;;;;;;;11.27;8.37;;;;;;;18.20;61.02;94956.56;5064243;28;20545;-68
2021/06/10 03:21:24;;;;;;;10.83;8.50;;;;;;;18.22;61.29;94959.69;5063218;28;20438;-67
2021/06/10 03:23:51;;;;;;;13.40;9.53;;;;;;;18.26;61.15;94958.03;5066110;28;20853;-68
2021/06/10 03:26:20;;;;;;;10.40;8.70;;;;;;;18.16;61.46;94966.19;5061694;28;21023;-67
2021/06/10 03:28:47;;;;;;;12.43;9.10;;;;;;;18.21;61.50;94956.25;5069944;28;20489;-67
2021/06/10 03:31:14;;;;;;;18.30;9.60;;;;;;;18.21;60.98;94960.75;5061249;28;20471;-68
2021/06/10 03:33:43;;;;;;;15.80;9.63;;;;;;;17.93;61.87;94938.91;5056789;28;20442;-67
2021/06/10 03:36:11;;;;;;;15.33;9.60;;;;;;;18.11;62.35;94955.72;5070118;28;20442;-67
2021/06/10 03:38:41;;;;;;;12.40;10.50;;;;;;;18.08;62.31;94956.31;5069288;28;20834;-67
2021/06/10 03:41:09;;;;;;;20.20;9.77;;;;;;;18.09;61.58;94942.75;5071009;28;20442;-67
2021/06/10 03:43:37;;;;;;;17.17;10.00;;;;;;;18.23;61.60;94951.44;5071767;28;21021;-68
2021/06/10 03:46:07;;;;;;;12.90;9.03;;;;;;;18.26;61.40;94952.72;5070292;28;21014;-67
2021/06/10 03:48:38;;;;;;;14.30;9.27;;;;;;;18.37;61.68;94939.97;5055942;28;20439;-66
2021/06/10 03:51:17;;;;;;;14.07;9.57;;;;;;;18.45;61.03;94950.69;5070449;28;20548;-66
2021/06/10 03:53:45;;;;;;;14.27;10.43;;;;;;;18.52;61.60;94951.03;5069815;28;20441;-67
2021/06/10 03:56:13;;;;;;;13.53;10.10;;;;;;;18.44;61.39;94949.13;5070339;28;20446;-67
2021/06/10 03:58:40;;;;;;;13.80;10.13;;;;;;;18.37;61.57;94948.72;5055928;28;20831;-68
2021/06/10 04:01:07;;;;;;;11.00;9.77;;;;;;;18.60;61.25;94947.66;5069809;28;20434;-66
2021/06/10 04:03:34;;;;;;;13.60;10.20;;;;;;;18.57;61.38;94952.78;5069283;28;20540;-66
2021/06/10 04:06:02;;;;;;;13.73;10.57;;;;;;;18.68;61.28;94948.78;5050812;28;21026;-66
2021/06/10 04:08:29;;;;;;;14.20;10.17;;;;;;;18.81;60.94;94948.69;5050051;28;20984;-67
2021/06/10 04:10:56;;;;;;;12.00;9.63;;;;;;;18.93;60.58;94956.09;5050029;28;20441;-67
2021/06/10 04:13:22;;;;;;;14.60;10.73;;;;;;;18.41;62.59;94949.69;5061361;28;20536;-66
2021/06/10 04:15:49;;;;;;;13.93;10.40;;;;;;;18.75;61.14;94954.44;5057499;28;20446;-67
2021/06/10 04:18:19;;;;;;;17.50;10.13;;;;;;;18.79;61.54;94936.81;5067702;28;20442;-68
2021/06/10 04:20:48;;;;;;;13.70;10.10;;;;;;;19.08;61.61;94943.22;5066155;28;20959;-67
2021/06/10 04:23:15;;;;;;;11.90;9.77;;;;;;;18.91;61.22;94948.44;5069726;28;20475;-69
2021/06/10 04:25:42;;;;;;;16.30;11.10;;;;;;;18.93;61.80;94930.34;5055321;28;20474;-68
2021/06/10 04:28:09;;;;;;;17.90;11.20;;;;;;;18.97;61.29;94941.91;5069757;28;20441;-69
2021/06/10 04:30:35;;;;;;;16.07;11.83;;;;;;;19.04;62.20;94939.59;5060930;28;20520;-68
2021/06/10 04:33:03;;;;;;;19.47;11.83;;;;;;;19.30;61.39;94944.22;5057990;28;20533;-67
2021/06/10 04:35:29;;;;;;;18.47;12.80;;;;;;;19.44;61.44;94940.38;5061398;28;20911;-64
2021/06/10 04:38:00;;;;;;;39.43;31.33;;;;;;;19.44;60.91;94944.91;5068907;28;20446;-68
2021/06/10 04:40:27;;;;;;;126.97;97.97;;;;;;;19.51;60.96;94943.34;5055416;28;20434;-65
2021/06/10 04:42:54;;;;;;;17.57;13.23;;;;;;;19.57;60.64;94933.34;5069756;28;20446;-67
2021/06/10 04:45:21;;;;;;;19.33;12.00;;;;;;;19.61;61.07;94944.94;5066774;28;20453;-65
2021/06/10 04:47:48;;;;;;;17.43;12.60;;;;;;;19.03;61.35;94935.34;5058387;28;20478;-66
2021/06/10 04:50:18;;;;;;;16.43;11.70;;;;;;;19.36;61.45;94937.69;5067940;28;20882;-65
2021/06/10 04:52:45;;;;;;;18.97;12.00;;;;;;;19.54;60.86;94939.31;5057142;28;20448;-65
2021/06/10 04:55:12;;;;;;;20.47;12.07;;;;;;;19.62;60.15;94938.53;5070217;28;20505;-65
2021/06/10 04:57:39;;;;;;;23.00;12.60;;;;;;;19.23;60.51;94925.28;5056099;28;20474;-65
2021/06/10 05:00:07;;;;;;;15.83;12.57;;;;;;;19.48;61.06;94932.56;5070103;28;21150;-69
2021/06/10 05:02:36;;;;;;;82.27;68.40;;;;;;;19.80;60.77;94934.78;5069117;28;20448;-70
2021/06/10 05:05:04;;;;;;;41.47;31.73;;;;;;;19.94;60.19;94938.88;5068380;28;20435;-69
2021/06/10 05:07:32;;;;;;;24.30;13.00;;;;;;;19.96;59.79;94925.28;5061800;28;20491;-67
2021/06/10 05:09:58;;;;;;;18.90;13.53;;;;;;;19.88;59.65;94939.34;5063164;28;20196;-69
2021/06/10 05:12:26;;;;;;;86.57;67.93;;;;;;;20.01;59.81;94935.75;5068694;28;21078;-66
2021/06/10 05:14:53;;;;;;;34.00;29.90;;;;;;;20.07;60.15;94942.50;5065439;28;20446;-66
2021/06/10 05:17:20;;;;;;;20.00;16.03;;;;;;;20.11;59.36;94933.56;5053841;28;20480;-68
2021/06/10 05:19:47;;;;;;;16.20;12.87;;;;;;;19.96;59.63;94935.91;5063162;28;20438;-67
2021/06/10 05:22:14;;;;;;;23.93;13.17;;;;;;;20.00;59.92;94942.16;5069017;28;20195;-69
2021/06/10 05:24:41;;;;;;;76.87;68.30;;;;;;;20.09;59.29;94937.63;5069866;28;20222;-66
2021/06/10 05:27:09;;;;;;;21.07;13.23;;;;;;;19.88;60.26;94936.69;5072889;28;20461;-69
2021/06/10 05:29:38;;;;;;;24.77;12.90;;;;;;;19.86;60.42;94946.84;5072753;28;20192;-67
2021/06/10 05:32:06;;;;;;;20.10;12.43;;;;;;;19.78;60.85;94950.28;5070225;28;20223;-67
2021/06/10 05:34:34;;;;;;;13.87;11.87;;;;;;;20.19;58.93;94945.31;5063190;28;20473;-67
2021/06/10 05:37:01;;;;;;;15.17;11.67;;;;;;;20.24;58.86;94939.84;5072856;28;20225;-69
2021/06/10 05:39:28;;;;;;;19.87;11.87;;;;;;;20.15;58.50;94945.16;5072241;28;20959;-69
2021/06/10 05:41:56;;;;;;;18.07;13.50;;;;;;;20.27;58.92;94947.22;5072020;28;20473;-66
2021/06/10 05:44:23;;;;;;;23.00;12.73;;;;;;;20.33;58.74;94943.28;5071604;28;20282;-67
2021/06/10 05:46:50;;;;;;;16.43;11.53;;;;;;;20.36;58.36;94940.00;5070829;28;20581;-66
2021/06/10 05:49:18;;;;;;;17.33;11.77;;;;;;;20.64;58.13;94935.06;5059119;28;20446;-67
2021/06/10 05:51:46;;;;;;;19.47;11.63;;;;;;;20.63;58.03;94929.00;5058544;28;20447;-66
2021/06/10 05:54:14;;;;;;;19.50;11.37;;;;;;;20.71;58.14;94938.81;5071546;28;20943;-67
2021/06/10 05:56:41;;;;;;;12.57;10.30;;;;;;;20.63;58.59;94939.63;5072995;28;20200;-65
2021/06/10 05:59:08;;;;;;;14.23;10.63;;;;;;;20.83;57.49;94938.97;5057866;28;20435;-65
2021/06/10 06:01:35;;;;;;;18.70;10.50;;;;;;;20.70;57.56;94945.25;5072488;28;20206;-67
2021/06/10 06:04:02;;;;;;;17.40;9.80;;;;;;;20.86;57.29;94953.50;5055077;28;20465;-68
2021/06/10 06:06:29;;;;;;;17.07;9.67;;;;;;;20.95;56.86;94944.41;5051906;28;20221;-66
2021/06/10 06:08:56;;;;;;;10.90;9.33;;;;;;;21.13;56.25;94948.59;5071566;28;20438;-67
2021/06/10 06:11:23;;;;;;;14.90;9.37;;;;;;;20.93;56.67;94935.94;5058235;28;20200;-66
2021/06/10 06:14:05;;;;;;;10.60;8.50;;;;;;;21.01;56.13;94939.69;5057974;28;20192;-66
2021/06/10 06:16:34;;;;;;;11.90;8.67;;;;;;;20.98;56.38;94930.44;5071597;28;20442;-68
2021/06/10 06:19:02;;;;;;;15.60;8.40;;;;;;;21.12;55.27;94939.03;5051513;28;20446;-65
2021/06/10 06:21:29;;;;;;;16.00;9.03;;;;;;;20.25;56.36;94937.97;5051682;28;20206;-67
2021/06/10 06:23:57;;;;;;;10.80;7.87;;;;;;;20.74;55.25;94938.19;5050952;28;20196;-68
2021/06/10 06:26:24;;;;;;;14.67;8.90;;;;;;;20.86;56.48;94948.97;5052072;28;20606;-66
2021/06/10 06:28:54;;;;;;;12.57;8.57;;;;;;;21.25;55.32;94939.91;5064317;28;20193;-67
2021/06/10 06:31:21;;;;;;;13.77;8.17;;;;;;;21.22;55.16;94945.13;5051966;28;20339;-66
2021/06/10 06:33:48;;;;;;;8.43;6.97;;;;;;;21.50;54.55;94949.66;5063898;28;20196;-69
2021/06/10 06:36:15;;;;;;;10.17;6.63;;;;;;;21.29;53.47;94953.38;5051945;28;20258;-65
2021/06/10 06:38:42;;;;;;;30.13;9.07;;;;;;;21.46;54.80;94950.66;5069131;28;20192;-65
2021/06/10 06:41:09;;;;;;;14.40;8.57;;;;;;;21.68;53.47;94953.00;5071598;28;20192;-66
2021/06/10 06:43:37;;;;;;;9.30;7.93;;;;;;;21.89;52.73;94961.88;5071193;28;20195;-67
2021/06/10 06:46:06;;;;;;;9.83;7.50;;;;;;;21.88;52.28;94957.63;5071461;28;20234;-66
2021/06/10 06:48:34;;;;;;;13.00;7.53;;;;;;;21.98;51.48;94954.56;5070721;28;20207;-66
2021/06/10 06:51:01;;;;;;;12.80;7.50;;;;;;;21.93;53.05;94960.13;5071092;28;20195;-66
2021/06/10 06:53:29;;;;;;;11.03;7.53;;;;;;;22.04;50.89;94961.28;5070638;28;20713;-66
2021/06/10 06:56:16;;;;;;;15.27;7.23;;;;;;;22.10;50.85;94959.97;5060088;28;20199;-66
2021/06/10 06:58:43;;;;;;;10.33;7.47;;;;;;;22.22;50.79;94962.72;5071250;28;20617;-64
2021/06/10 07:01:10;;;;;;;13.83;7.50;;;;;;;22.25;50.84;94956.72;5071538;28;20261;-66
2021/06/10 07:03:37;;;;;;;14.43;8.23;;;;;;;22.50;51.37;94958.38;5070798;28;20214;-66
2021/06/10 07:06:04;;;;;;;15.13;8.23;;;;;;;22.44;50.77;94965.03;5051495;28;20215;-64
2021/06/10 07:08:31;;;;;;;22.63;7.83;;;;;;;22.72;50.83;94962.59;5050513;28;20285;-68
2021/06/10 07:11:01;;;;;;;23.20;8.07;;;;;;;22.80;51.89;94970.53;5051192;28;20207;-66
2021/06/10 07:13:28;;;;;;;17.23;8.03;;;;;;;23.13;50.93;94965.94;5064344;28;20193;-67
2021/06/10 07:15:56;;;;;;;21.13;9.30;;;;;;;22.98;51.00;94990.63;5060665;28;20203;-66
2021/06/10 07:18:23;;;;;;;16.87;9.13;;;;;;;22.59;52.27;94999.16;5054864;28;20197;-70
2021/06/10 07:20:50;;;;;;;15.00;8.77;;;;;;;22.80;52.64;94994.59;5051309;28;20189;-69
2021/06/10 07:23:17;;;;;;;12.53;9.77;;;;;;;22.79;53.59;95003.69;5063966;28;20230;-66
2021/06/10 07:25:44;;;;;;;13.20;9.83;;;;;;;23.01;52.42;95006.00;5064597;28;20196;-67
2021/06/10 07:28:11;;;;;;;13.47;9.77;;;;;;;23.31;51.62;95003.19;5049995;28;20698;-65
2021/06/10 07:30:38;;;;;;;11.87;8.70;;;;;;;23.33;50.92;95006.31;5068571;28;20219;-66
2021/06/10 07:33:05;;;;;;;16.23;8.13;;;;;;;23.41;51.08;95003.53;5070952;28;20292;-67
2021/06/10 07:35:33;;;;;;;10.93;7.90;;;;;;;23.38;50.50;95008.75;5056333;28;20203;-65
2021/06/10 07:38:03;;;;;;;12.67;7.33;;;;;;;23.40;50.57;95006.53;5070702;28;20623;-66
2021/06/10 07:40:30;;;;;;;10.67;6.77;;;;;;;23.66;49.54;95010.47;5069629;28;20194;-69
2021/06/10 07:42:58;;;;;;;8.00;7.00;;;;;;;23.67;47.24;95011.22;5069212;28;20203;-67
2021/06/10 07:45:26;;;;;;;8.07;6.60;;;;;;;23.54;48.99;95021.16;5066269;28;20215;-68
2021/06/10 07:47:53;;;;;;;8.60;7.03;;;;;;;23.16;49.73;95028.63;5059726;28;20231;-65
2021/06/10 07:50:22;;;;;;;9.43;6.53;;;;;;;23.01;48.44;95011.34;5069554;28;20200;-65
2021/06/10 07:52:49;;;;;;;6.87;5.50;;;;;;;23.14;48.91;95020.94;5070245;28;20206;-66
2021/06/10 07:55:19;;;;;;;6.47;5.87;;;;;;;22.97;49.09;95023.78;5069445;28;20199;-66
2021/06/10 07:57:47;;;;;;;10.30;6.20;;;;;;;22.99;48.32;95026.16;5070325;28;20187;-67
2021/06/10 08:00:15;;;;;;;5.50;3.50;;;;;;;22.86;43.78;95019.97;5070335;28;20206;-68
2021/06/10 08:02:43;;;;;;;4.27;3.37;;;;;;;22.87;43.42;95032.22;5064316;28;20242;-67
2021/06/10 08:05:11;;;;;;;7.73;3.37;;;;;;;22.68;42.68;95029.25;5056979;28;20195;-65
2021/06/10 08:07:42;;;;;;;5.73;3.30;;;;;;;22.66;42.79;95025.38;5049984;28;20561;-65
2021/06/10 08:10:11;;;;;;;7.13;3.87;;;;;;;22.79;42.93;95030.41;5063705;28;20571;-65
2021/06/10 08:12:43;;;;;;;5.20;2.93;;;;;;;22.78;42.95;95036.88;5049872;28;20254;-67
2021/06/10 08:15:11;;;;;;;3.37;2.87;;;;;;;22.99;43.11;95034.94;5063160;28;20192;-65
2021/06/10 08:17:38;;;;;;;5.83;3.30;;;;;;;23.23;43.09;95034.22;5059286;28;20200;-64
2021/06/10 08:20:07;;;;;;;11.03;3.20;;;;;;;23.22;42.90;95031.88;5055173;28;20741;-67
2021/06/10 08:22:34;;;;;;;6.87;3.90;;;;;;;23.45;43.48;95028.50;5062255;28;20203;-66
2021/06/10 08:25:01;;;;;;;7.60;3.90;;;;;;;23.45;44.36;95035.75;5063540;28;20225;-67
2021/06/10 08:27:28;;;;;;;12.33;5.17;;;;;;;23.58;44.70;95035.44;5049834;28;20208;-66
2021/06/10 08:29:54;;;;;;;6.13;5.03;;;;;;;23.12;44.83;95044.56;5061432;28;20673;-65
2021/06/10 08:32:21;;;;;;;11.70;6.30;;;;;;;23.55;44.77;95036.09;5064876;28;20229;-68
2021/06/10 08:34:48;;;;;;;11.17;5.70;;;;;;;23.44;46.26;95039.53;5049765;28;20510;-68
2021/06/10 08:37:15;;;;;;;6.57;5.23;;;;;;;23.49;46.05;95041.97;5055688;28;20692;-67
2021/06/10 08:39:42;;;;;;;14.73;5.27;;;;;;;23.43;45.92;95046.75;5069183;28;20567;-64
2021/06/10 08:42:09;;;;;;;7.90;6.17;;;;;;;23.28;47.49;95057.31;5069680;28;20199;-63
2021/06/10 08:44:36;;;;;;;11.17;7.30;;;;;;;23.19;50.11;95064.63;5069438;28;20720;-69
2021/06/10 08:47:07;;;;;;;24.30;8.30;;;;;;;22.94;52.11;95061.88;5069818;28;20219;-68
2021/06/10 08:49:34;;;;;;;15.90;8.37;;;;;;;22.31;54.30;95056.88;5060009;28;20675;-63
2021/06/10 08:52:05;;;;;;;12.33;7.10;;;;;;;21.86;54.67;95051.31;5065555;28;20200;-65
2021/06/10 08:54:33;;;;;;;11.20;7.63;;;;;;;21.82;56.70;95062.97;5073262;28;20192;-67
2021/06/10 08:57:00;;;;;;;7.67;6.03;;;;;;;21.93;55.12;95053.50;5073629;28;20260;-65
2021/06/10 08:59:28;;;;;;;9.63;6.37;;;;;;;21.53;54.30;95054.91;5066269;28;20189;-67
2021/06/10 09:01:55;;;;;;;9.77;7.20;;;;;;;21.51;54.86;95055.22;5053830;28;20207;-66
2021/06/10 09:04:22;;;;;;;8.87;6.30;;;;;;;21.18;55.84;95047.00;5071081;28;20631;-63
2021/06/10 09:06:51;;;;;;;6.63;5.93;;;;;;;21.12;55.36;95048.28;5056049;28;20192;-63
2021/06/10 09:09:32;;;;;;;7.47;6.00;;;;;;;21.00;56.07;95045.47;5054170;28;20749;-64
2021/06/10 09:12:07;;;;;;;8.33;5.90;;;;;;;21.27;55.81;95032.88;5067402;28;20203;-65
2021/06/10 09:14:57;;;;;;;8.80;6.20;;;;;;;21.25;55.55;95027.09;5065180;28;20294;-66
2021/06/10 09:17:37;;;;;;;7.23;6.30;;;;;;;20.93;54.39;95025.72;5053216;28;20207;-66
2021/06/10 09:20:26;;;;;;;8.17;5.53;;;;;;;20.92;54.62;95024.16;5066758;28;20199;-64
2021/06/10 09:23:27;;;;;;;6.23;5.63;;;;;;;21.46;54.28;95025.28;5063707;28;20442;-64
2021/06/10 09:26:02;;;;;;;9.27;6.53;;;;;;;21.97;53.76;95035.72;5065780;28;20513;-66
2021/06/10 09:28:34;;;;;;;8.43;6.13;;;;;;;22.41;54.00;95040.44;5066074;28;20492;-67
2021/06/10 09:31:02;;;;;;;7.57;6.13;;;;;;;22.88;54.85;95038.38;5052603;28;20255;-65
2021/06/10 09:33:39;;;;;;;6.43;5.03;;;;;;;22.76;50.83;95041.75;5051758;28;20810;-67
2021/06/10 09:36:06;;;;;;;5.07;4.40;;;;;;;22.61;48.44;95023.66;5060017;28;20195;-65
2021/06/10 09:38:33;;;;;;;5.33;4.33;;;;;;;22.61;48.38;95030.91;5072111;28;20199;-64
2021/06/10 09:41:06;;;;;;;5.57;4.57;;;;;;;23.06;49.97;95019.13;5072530;28;20241;-66
2021/06/10 09:43:47;;;;;;;5.53;3.93;;;;;;;23.04;45.57;95005.34;5056160;28;20299;-65
2021/06/10 09:46:14;;;;;;;5.50;3.60;;;;;;;23.67;45.65;95016.59;5062951;28;20192;-65
2021/06/10 09:48:41;;;;;;;3.60;2.97;;;;;;;23.43;42.79;95013.91;5069873;28;20230;-64
2021/06/10 09:51:23;;;;;;;3.27;2.87;;;;;;;23.59;41.44;95009.47;5061022;28;20235;-66
2021/06/10 09:53:50;;;;;;;5.03;3.67;;;;;;;24.08;43.67;95019.84;5057836;28;20324;-66
2021/06/10 09:56:17;;;;;;;3.97;3.23;;;;;;;23.80;41.51;95004.75;5072391;28;20591;-69
2021/06/10 09:58:45;;;;;;;4.00;2.90;;;;;;;24.02;42.07;95007.78;5071594;28;20787;-66
2021/06/10 10:01:16;;;;;;;2.53;2.23;;;;;;;24.42;42.09;95007.81;5072138;28;20326;-65
2021/06/10 10:03:46;;;;;;;4.13;2.50;;;;;;;24.54;41.00;95007.75;5071474;28;20207;-66
2021/06/10 10:06:21;;;;;;;5.53;2.20;;;;;;;24.39;39.81;94999.69;5072811;28;20227;-64
2021/06/10 10:08:53;;;;;;;2.90;2.70;;;;;;;24.37;39.65;95002.69;5058522;28;20211;-67
2021/06/10 10:11:22;;;;;;;3.37;3.07;;;;;;;24.61;42.20;94991.91;5058646;28;20266;-68
2021/06/10 10:13:52;;;;;;;7.13;3.50;;;;;;;24.49;42.38;94999.22;5051847;28;20207;-64
2021/06/10 10:16:26;;;;;;;3.93;3.60;;;;;;;24.62;41.92;94993.47;5051664;28;20291;-65
2021/06/10 10:18:54;;;;;;;4.47;3.30;;;;;;;24.99;41.43;94989.53;5065062;28;20196;-69
2021/06/10 10:21:29;;;;;;;7.53;3.40;;;;;;;25.08;43.17;94984.78;5052340;28;20204;-66
2021/06/10 10:24:00;;;;;;;7.37;4.13;;;;;;;25.45;42.89;94981.88;5065513;28;20200;-68
2021/06/10 10:26:32;;;;;;;5.30;3.87;;;;;;;25.77;41.58;94973.47;5051648;28;20299;-67
2021/06/10 10:29:02;;;;;;;4.57;3.77;;;;;;;25.70;40.45;94983.25;5055604;28;20224;-68
2021/06/10 10:31:30;;;;;;;4.63;3.37;;;;;;;25.95;39.72;94979.22;5071416;28;20227;-65
2021/06/10 10:33:57;;;;;;;4.13;2.93;;;;;;;26.00;38.28;94974.34;5070043;28;20238;-68
2021/06/10 10:36:30;;;;;;;6.03;3.07;;;;;;;26.05;37.61;94962.59;5071581;28;20199;-65
2021/06/10 10:39:06;;;;;;;4.97;3.07;;;;;;;26.52;38.01;94971.28;5057823;28;20221;-66
2021/06/10 10:41:49;;;;;;;8.63;2.93;;;;;;;26.74;36.73;94964.41;5071545;28;20218;-66
2021/06/10 10:44:23;;;;;;;3.20;2.63;;;;;;;26.81;33.62;94959.97;5059273;28;20218;-63
2021/06/10 10:46:59;;;;;;;3.17;2.10;;;;;;;26.88;33.31;94960.09;5069983;28;20195;-67
2021/06/10 10:49:29;;;;;;;13.17;2.67;;;;;;;26.91;35.13;94962.09;5070966;28;20219;-64
2021/06/10 10:52:37;;;;;;;1.40;1.30;;;;;;;26.74;31.70;94957.13;5071391;28;20211;-66
2021/06/10 10:55:19;;;;;;;3.23;1.63;;;;;;;26.97;32.41;94955.25;5035718;28;20291;-64
2021/06/10 10:57:46;;;;;;;2.57;1.17;;;;;;;26.64;30.50;94946.91;5057086;28;20865;-66
2021/06/10 11:00:20;;;;;;;1.73;1.63;;;;;;;26.46;30.83;94945.81;5070993;28;20195;-65
2021/06/10 11:03:18;;;;;;;2.17;1.80;;;;;;;26.99;31.21;94949.50;5058111;28;20206;-64
2021/06/10 11:05:46;;;;;;;2.10;1.83;;;;;;;27.41;30.37;94936.06;5051553;28;20197;-66
2021/06/10 11:08:13;;;;;;;2.27;2.07;;;;;;;27.65;32.26;94941.03;5050497;28;20259;-67
2021/06/10 11:10:55;;;;;;;2.60;2.20;;;;;;;27.89;30.64;94940.63;5050867;28;20533;-67
2021/06/10 11:13:24;;;;;;;2.60;2.10;;;;;;;27.69;30.23;94944.56;5050199;28;20295;-63
2021/06/10 11:15:55;;;;;;;2.40;2.00;;;;;;;28.03;30.22;94930.06;5050503;28;20192;-68
2021/06/10 11:18:38;;;;;;;2.20;1.97;;;;;;;28.29;31.98;94932.72;5049946;28;20291;-64
2021/06/10 11:21:05;;;;;;;5.67;2.50;;;;;;;28.40;32.20;94938.25;5051088;28;20279;-67
2021/06/10 11:23:32;;;;;;;3.80;2.30;;;;;;;27.94;29.35;94932.25;5063950;28;20191;-65
2021/06/10 11:26:03;;;;;;;3.43;2.00;;;;;;;28.28;30.26;94919.63;5050824;28;20291;-66
2021/06/10 11:28:36;;;;;;;3.20;2.20;;;;;;;27.83;29.27;94921.31;5049889;28;20227;-64
2021/06/10 11:31:33;;;;;;;2.40;2.20;;;;;;;27.63;27.85;94919.06;5058312;28;20219;-63
2021/06/10 11:34:31;;;;;;;2.90;1.80;;;;;;;27.88;28.07;94912.16;5068213;28;20238;-65
2021/06/10 11:36:58;;;;;;;3.57;1.83;;;;;;;27.96;26.84;94898.44;5070818;28;20203;-63
2021/06/10 11:39:30;;;;;;;3.77;1.70;;;;;;;27.62;27.76;94901.38;5060020;28;20219;-66